Time;durP1;ratioP1;P1;durP2;ratioP2;P2;SDS_P1;SDS_P2;PMS_P1;PMS_P2;Temp;Humidity;BMP_temperature;BMP_pressure;BME280_temperature;BME280_humidity;BME280_pressure;Samples;Min_cycle;Max_cycle;Signal;HPM_P1;HPM_P2
2023/06/13 00:01:53;;;;;;;0.73;0.73;;;16.00;99.90;;;;;;5105513;28;20325;-77
2023/06/13 00:04:23;;;;;;;0.20;0.20;;;16.00;99.90;;;;;;5104750;28;20110;-77
2023/06/13 00:06:50;;;;;;;0.10;0.10;;;16.00;99.90;;;;;;5101713;28;20050;-83
2023/06/13 00:09:19;;;;;;;0.20;0.20;;;16.00;99.90;;;;;;5106704;28;20016;-86
2023/06/13 00:11:46;;;;;;;0.10;0.10;;;16.00;99.90;;;;;;5105638;28;20016;-77
2023/06/13 00:14:12;;;;;;;4.60;4.30;;;16.00;99.90;;;;;;5111233;28;20035;-79
2023/06/13 00:16:39;;;;;;;6.93;6.22;;;15.90;99.90;;;;;;5102242;28;20044;-86
2023/06/13 00:19:09;;;;;;;6.53;5.00;;;16.00;99.90;;;;;;5102711;28;20047;-82
2023/06/13 00:21:36;;;;;;;0.10;0.10;;;15.90;99.90;;;;;;5100911;28;20024;-83
2023/06/13 00:24:02;;;;;;;1.08;1.08;;;15.70;99.90;;;;;;5101998;28;20265;-77
2023/06/13 00:26:28;;;;;;;0.10;0.10;;;16.00;99.90;;;;;;5102309;28;20661;-76
2023/06/13 00:28:53;;;;;;;0.30;0.30;;;15.90;99.90;;;;;;5100628;28;20028;-79
2023/06/13 00:31:19;;;;;;;0.20;0.20;;;15.90;99.90;;;;;;5101361;28;20031;-76
2023/06/13 00:33:45;;;;;;;1.42;1.33;;;15.80;99.90;;;;;;5100278;28;20039;-77
2023/06/13 00:36:15;;;;;;;0.20;0.20;;;15.80;99.90;;;;;;5101994;28;20456;-85
2023/06/13 00:38:42;;;;;;;0.10;0.10;;;15.80;99.90;;;;;;5085701;28;20235;-84
2023/06/13 00:41:08;;;;;;;0.20;0.20;;;15.80;99.90;;;;;;5088526;28;20030;-78
2023/06/13 00:43:34;;;;;;;0.10;0.10;;;15.70;99.90;;;;;;5105764;28;20129;-79
2023/06/13 00:46:03;;;;;;;15.88;5.57;;;15.70;99.90;;;;;;5109417;28;20505;-85
2023/06/13 00:48:29;;;;;;;0.20;0.20;;;15.70;99.90;;;;;;5091504;28;20520;-75
2023/06/13 00:50:55;;;;;;;0.20;0.20;;;15.60;99.90;;;;;;5102923;28;20563;-84
2023/06/13 00:53:21;;;;;;;0.10;0.10;;;15.60;99.90;;;;;;5109762;28;20088;-81
2023/06/13 00:55:49;;;;;;;0.10;0.10;;;15.60;99.90;;;;;;5104520;28;20580;-78
2023/06/13 00:58:16;;;;;;;0.10;0.10;;;15.60;99.90;;;;;;5101432;28;20023;-82
2023/06/13 01:00:45;;;;;;;0.10;0.10;;;15.60;99.90;;;;;;5081436;28;20619;-87
2023/06/13 01:03:15;;;;;;;0.10;0.10;;;15.60;99.90;;;;;;5100994;28;20398;-83
2023/06/13 01:05:44;;;;;;;0.10;0.10;;;15.50;99.90;;;;;;5100887;28;20107;-87
2023/06/13 01:08:30;;;;;;;0.20;0.20;;;15.50;99.90;;;;;;5100941;28;20043;-81
2023/06/13 01:11:04;;;;;;;0.15;0.15;;;15.50;99.90;;;;;;5100588;28;20102;-75
2023/06/13 01:13:40;;;;;;;;;;;15.60;99.90;;;;;;5101905;28;20019;-88
2023/06/13 01:16:16;;;;;;;1.63;1.55;;;15.60;99.90;;;;;;5101153;28;19916;-86
2023/06/13 01:18:43;;;;;;;0.20;0.20;;;15.60;99.90;;;;;;5100820;28;20090;-76
2023/06/13 01:21:11;;;;;;;0.10;0.10;;;15.60;99.90;;;;;;5100131;28;20372;-86
2023/06/13 01:23:49;;;;;;;1.30;1.27;;;15.60;99.90;;;;;;5100967;28;20289;-76
2023/06/13 01:26:27;;;;;;;0.20;0.20;;;15.60;99.90;;;;;;5100693;28;20482;-85
2023/06/13 01:28:55;;;;;;;0.10;0.10;;;15.60;99.90;;;;;;5101046;28;20023;-86
2023/06/13 01:31:23;;;;;;;0.43;0.43;;;15.60;99.90;;;;;;5099470;28;20023;-80
2023/06/13 01:33:50;;;;;;;0.10;0.10;;;15.60;99.90;;;;;;5100446;28;20167;-89
2023/06/13 01:36:16;;;;;;;0.57;0.57;;;15.60;99.90;;;;;;5098813;28;20024;-76
2023/06/13 01:38:43;;;;;;;2.28;2.17;;;15.70;99.90;;;;;;5100188;28;20110;-75
2023/06/13 01:41:08;;;;;;;0.22;0.22;;;16.20;99.90;;;;;;5100566;28;20056;-87
2023/06/13 01:43:34;;;;;;;0.30;0.30;;;15.70;99.90;;;;;;5100559;28;20532;-79
2023/06/13 01:46:21;;;;;;;0.35;0.35;;;15.70;99.90;;;;;;5100257;28;20028;-81
2023/06/13 01:48:54;;;;;;;6.00;1.33;;;15.40;99.90;;;;;;5100185;28;20370;-78
2023/06/13 01:51:36;;;;;;;0.10;0.10;;;15.70;99.90;;;;;;5099486;28;20111;-85
2023/06/13 01:54:06;;;;;;;2.65;2.45;;;14.00;99.90;;;;;;5100363;28;20223;-89
2023/06/13 01:56:34;;;;;;;0.20;0.20;;;15.70;99.90;;;;;;5100473;28;20043;-85
2023/06/13 01:59:04;;;;;;;0.10;0.10;;;15.70;99.90;;;;;;5100500;28;20016;-77
2023/06/13 02:01:34;;;;;;;0.45;0.45;;;15.70;99.90;;;;;;5100055;28;20023;-84
2023/06/13 02:04:03;;;;;;;0.20;0.20;;;15.70;99.90;;;;;;5100594;28;20200;-76
2023/06/13 02:06:30;;;;;;;0.47;0.47;;;15.40;99.90;;;;;;5100278;28;20031;-87
2023/06/13 02:08:56;;;;;;;1.30;1.20;;;15.70;99.90;;;;;;5081404;28;20454;-79
2023/06/13 02:11:22;;;;;;;0.10;0.10;;;15.70;99.90;;;;;;5100505;28;20094;-82
2023/06/13 02:13:49;;;;;;;0.28;0.28;;;15.70;99.90;;;;;;5100627;28;20024;-78
2023/06/13 02:16:17;;;;;;;0.17;0.17;;;15.70;99.90;;;;;;5101233;28;20023;-79
2023/06/13 02:18:44;;;;;;;1.15;1.10;;;15.80;99.90;;;;;;5104265;28;20019;-81
2023/06/13 02:21:09;;;;;;;0.82;0.82;;;15.40;99.90;;;;;;5104352;28;20020;-77
2023/06/13 02:23:35;;;;;;;0.40;0.40;;;15.80;99.90;;;;;;5104552;28;20103;-82
2023/06/13 02:26:01;;;;;;;0.10;0.10;;;15.70;99.90;;;;;;5103736;28;20047;-81
2023/06/13 02:28:28;;;;;;;0.10;0.10;;;15.70;99.90;;;;;;5103187;28;20110;-76
2023/06/13 02:30:54;;;;;;;0.10;0.10;;;15.70;99.90;;;;;;5102615;28;20565;-82
2023/06/13 02:33:20;;;;;;;0.20;0.20;;;15.70;99.90;;;;;;5103666;28;20016;-79
2023/06/13 02:35:46;;;;;;;0.20;0.20;;;15.70;99.90;;;;;;5102645;28;20035;-87
2023/06/13 02:38:12;;;;;;;0.10;0.10;;;15.60;99.90;;;;;;5103238;28;20417;-77
2023/06/13 02:40:38;;;;;;;0.22;0.22;;;15.60;99.90;;;;;;5102907;28;20029;-85
2023/06/13 02:43:04;;;;;;;0.10;0.10;;;15.60;99.90;;;;;;5103211;28;20308;-77
2023/06/13 02:45:30;;;;;;;0.10;0.10;;;15.60;99.90;;;;;;5102750;28;20070;-87
2023/06/13 02:47:55;;;;;;;0.10;0.10;;;15.70;99.90;;;;;;5104512;28;20035;-85
2023/06/13 02:50:21;;;;;;;0.10;0.10;;;15.60;99.90;;;;;;5106250;28;20026;-89
2023/06/13 02:52:47;;;;;;;0.10;0.10;;;15.70;99.90;;;;;;5111040;28;20077;-79
2023/06/13 02:55:13;;;;;;;0.20;0.20;;;15.70;99.90;;;;;;5109452;28;20060;-79
2023/06/13 02:57:39;;;;;;;0.10;0.10;;;15.70;99.90;;;;;;5109999;28;20076;-76
2023/06/13 03:00:10;;;;;;;0.10;0.10;;;15.70;99.90;;;;;;5102886;28;20023;-88
2023/06/13 03:02:39;;;;;;;0.10;0.10;;;15.70;99.90;;;;;;5103266;28;20454;-81
2023/06/13 03:05:10;;;;;;;0.20;0.20;;;15.10;99.90;;;;;;5102977;28;20030;-77
2023/06/13 03:07:36;;;;;;;0.20;0.20;;;15.60;99.90;;;;;;5102776;28;20015;-79
2023/06/13 03:10:03;;;;;;;0.43;0.43;;;15.70;99.90;;;;;;5105486;28;20031;-87
2023/06/13 03:12:30;;;;;;;0.20;0.20;;;15.70;99.90;;;;;;5101981;28;20024;-77
2023/06/13 03:14:56;;;;;;;0.20;0.20;;;17.30;99.90;;;;;;5102390;28;20099;-76
2023/06/13 03:17:22;;;;;;;0.10;0.10;;;15.70;99.90;;;;;;5101875;28;20505;-82
2023/06/13 03:19:48;;;;;;;0.10;0.10;;;15.70;99.90;;;;;;5103284;28;20042;-86
2023/06/13 03:22:14;;;;;;;0.20;0.20;;;15.70;99.90;;;;;;5085032;28;20490;-83
2023/06/13 03:24:44;;;;;;;0.20;0.20;;;15.70;99.90;;;;;;5102928;28;20031;-84
2023/06/13 03:27:12;;;;;;;0.68;0.68;;;15.60;99.90;;;;;;5102200;28;20042;-83
2023/06/13 03:29:41;;;;;;;0.10;0.10;;;15.60;99.90;;;;;;5103857;28;20020;-82
2023/06/13 03:32:11;;;;;;;0.20;0.20;;;15.70;99.90;;;;;;5084320;28;20023;-78
2023/06/13 03:34:38;;;;;;;0.10;0.10;;;15.60;99.90;;;;;;5103667;28;20076;-85
2023/06/13 03:37:08;;;;;;;0.10;0.10;;;15.70;99.90;;;;;;5085818;28;20020;-75
2023/06/13 03:39:35;;;;;;;0.10;0.10;;;15.70;99.90;;;;;;5102565;28;20043;-91
2023/06/13 03:42:01;;;;;;;0.10;0.10;;;15.70;99.90;;;;;;5103280;28;20024;-77
2023/06/13 03:44:28;;;;;;;0.30;0.30;;;15.70;99.90;;;;;;5083997;28;20517;-93
2023/06/13 03:46:58;;;;;;;0.10;0.10;;;15.70;99.90;;;;;;5085495;28;20043;-77
2023/06/13 03:49:24;;;;;;;0.10;0.10;;;15.70;99.90;;;;;;5085879;28;20027;-87
2023/06/13 03:51:51;;;;;;;0.40;0.40;;;15.60;99.90;;;;;;5105705;28;20049;-79
2023/06/13 03:54:18;;;;;;;0.28;0.28;;;15.60;99.90;;;;;;5113001;28;20231;-77
2023/06/13 03:56:44;;;;;;;0.93;0.93;;;15.60;99.90;;;;;;5094142;28;20022;-82
2023/06/13 03:59:10;;;;;;;0.60;0.60;;;15.60;99.90;;;;;;5094417;28;20114;-85
2023/06/13 04:01:36;;;;;;;0.10;0.10;;;15.60;99.90;;;;;;5109838;28;20100;-75
2023/06/13 04:04:02;;;;;;;0.20;0.20;;;15.60;99.90;;;;;;5090118;28;20212;-82
2023/06/13 04:06:28;;;;;;;0.20;0.20;;;14.90;99.90;;;;;;5091045;28;20024;-83
2023/06/13 04:08:55;;;;;;;0.10;0.10;;;15.70;99.90;;;;;;5112508;28;20023;-86
2023/06/13 04:11:21;;;;;;;2.88;2.63;;;15.30;99.90;;;;;;5104856;28;20300;-78
2023/06/13 04:13:47;;;;;;;1.80;1.70;;;15.60;99.90;;;;;;5110537;28;20019;-84
2023/06/13 04:16:13;;;;;;;0.20;0.20;;;15.80;99.90;;;;;;5105949;28;20035;-74
2023/06/13 04:18:39;;;;;;;0.57;0.57;;;15.60;99.90;;;;;;5106003;28;20073;-86
2023/06/13 04:21:06;;;;;;;3.78;3.60;;;15.60;99.90;;;;;;5102621;28;20024;-75
2023/06/13 04:23:33;;;;;;;1.58;1.48;;;15.70;99.90;;;;;;5083240;28;20024;-83
2023/06/13 04:26:03;;;;;;;0.10;0.10;;;15.70;99.90;;;;;;5084234;28;20300;-81
2023/06/13 04:28:32;;;;;;;0.63;0.63;;;15.80;99.90;;;;;;5102368;28;20034;-87
2023/06/13 04:31:03;;;;;;;0.55;0.55;;;15.80;99.90;;;;;;5102277;28;20482;-88
2023/06/13 04:33:29;;;;;;;0.68;0.68;;;15.80;99.90;;;;;;5084645;28;20031;-74
2023/06/13 04:36:05;;;;;;;0.10;0.10;;;15.90;99.90;;;;;;5082688;28;20130;-90
2023/06/13 04:38:34;;;;;;;0.10;0.10;;;15.90;99.90;;;;;;5065015;28;20032;-83
2023/06/13 04:41:03;;;;;;;0.50;0.50;;;15.90;99.90;;;;;;5100600;28;20024;-91
2023/06/13 04:43:28;;;;;;;0.15;0.15;;;16.00;99.90;;;;;;5101943;28;20213;-86
2023/06/13 04:46:02;;;;;;;0.20;0.20;;;16.10;99.90;;;;;;5100354;28;20029;-81
2023/06/13 04:48:33;;;;;;;1.55;1.48;;;16.80;99.90;;;;;;5101483;28;20094;-77
2023/06/13 04:50:59;;;;;;;2.47;2.28;;;16.20;99.90;;;;;;5082146;28;20547;-84
2023/06/13 04:53:26;;;;;;;0.20;0.20;;;16.30;99.90;;;;;;5101685;28;20023;-75
2023/06/13 04:55:52;;;;;;;0.65;0.65;;;16.30;99.90;;;;;;5085696;28;20110;-78
2023/06/13 04:58:18;;;;;;;1.08;0.52;;;16.40;99.90;;;;;;5106900;28;20024;-75
2023/06/13 05:00:48;;;;;;;0.10;0.10;;;16.50;99.90;;;;;;5109823;28;20035;-77
2023/06/13 05:03:18;;;;;;;0.20;0.20;;;15.00;99.90;;;;;;5107400;28;20046;-84
2023/06/13 05:05:47;;;;;;;0.10;0.10;;;16.70;99.90;;;;;;5101506;28;20107;-79
2023/06/13 05:08:15;;;;;;;0.10;0.10;;;16.80;99.90;;;;;;5083616;28;20489;-79
2023/06/13 05:10:44;;;;;;;0.35;0.32;;;16.90;99.90;;;;;;5083080;28;20315;-81
2023/06/13 05:13:11;;;;;;;0.52;0.52;;;16.60;99.90;;;;;;5101025;28;20011;-80
2023/06/13 05:15:37;;;;;;;0.30;0.30;;;16.80;99.90;;;;;;5100569;28;20032;-76
2023/06/13 05:18:06;;;;;;;0.10;0.10;;;16.90;99.90;;;;;;5080922;28;20065;-83
2023/06/13 05:20:32;;;;;;;0.10;0.10;;;17.00;99.90;;;;;;5099514;28;20024;-85
2023/06/13 05:23:00;;;;;;;1.33;1.27;;;16.90;99.90;;;;;;5099279;28;20115;-87
2023/06/13 05:25:26;;;;;;;0.10;0.10;;;18.00;99.90;;;;;;5099109;28;20024;-81
2023/06/13 05:27:51;;;;;;;1.52;1.45;;;16.80;99.90;;;;;;5099544;28;20035;-80
2023/06/13 05:30:17;;;;;;;0.28;0.28;;;16.80;99.90;;;;;;5100705;28;20027;-77
2023/06/13 05:32:43;;;;;;;0.75;0.75;;;16.80;99.90;;;;;;5081083;28;20094;-84
2023/06/13 05:35:09;;;;;;;0.57;0.57;;;14.50;99.90;;;;;;5081835;28;20574;-82
2023/06/13 05:37:38;;;;;;;0.80;0.80;;;16.90;99.90;;;;;;5100579;28;20374;-86
2023/06/13 05:40:09;;;;;;;0.20;0.20;;;16.90;99.90;;;;;;5099723;28;20215;-85
2023/06/13 05:42:36;;;;;;;0.10;0.10;;;16.90;99.90;;;;;;5101141;28;20256;-85
2023/06/13 05:45:06;;;;;;;0.10;0.10;;;17.00;99.90;;;;;;5098950;28;20023;-86
2023/06/13 05:47:32;;;;;;;0.20;0.20;;;17.10;99.90;;;;;;5099477;28;20012;-77
2023/06/13 05:49:58;;;;;;;0.20;0.20;;;17.00;99.90;;;;;;5081302;28;20028;-81
2023/06/13 05:52:25;;;;;;;0.10;0.10;;;17.00;99.90;;;;;;5100389;28;20077;-85
2023/06/13 05:54:51;;;;;;;0.10;0.10;;;16.90;99.90;;;;;;5082192;28;20050;-85
2023/06/13 05:57:17;;;;;;;0.10;0.10;;;17.00;99.90;;;;;;5100355;28;20419;-85
2023/06/13 05:59:43;;;;;;;0.10;0.10;;;17.00;99.90;;;;;;5100296;28;20246;-84
2023/06/13 06:02:12;;;;;;;3.58;2.10;;;17.00;99.90;;;;;;5100132;28;20406;-86
2023/06/13 06:04:38;;;;;;;0.85;0.85;;;17.10;99.90;;;;;;5100476;28;20027;-81
2023/06/13 06:07:05;;;;;;;0.10;0.10;;;17.10;99.90;;;;;;5101486;28;20046;-75
2023/06/13 06:09:31;;;;;;;1.20;1.20;;;17.00;99.90;;;;;;5097732;28;20015;-77
2023/06/13 06:11:56;;;;;;;0.20;0.20;;;14.50;99.90;;;;;;5080738;28;20047;-75
2023/06/13 06:14:22;;;;;;;0.10;0.10;;;17.00;99.90;;;;;;5099371;28;20039;-75
2023/06/13 06:16:50;;;;;;;0.32;0.32;;;17.00;99.90;;;;;;5100164;28;20264;-91
2023/06/13 06:19:16;;;;;;;0.10;0.10;;;17.10;99.90;;;;;;5098729;28;20016;-75
2023/06/13 06:21:41;;;;;;;0.20;0.20;;;17.20;99.90;;;;;;5100425;28;20034;-81
2023/06/13 06:24:08;;;;;;;2.55;2.45;;;14.90;99.90;;;;;;5099619;28;20030;-81
2023/06/13 06:26:37;;;;;;;0.20;0.20;;;17.40;99.90;;;;;;5081756;28;20031;-84
2023/06/13 06:29:03;;;;;;;0.20;0.20;;;15.90;99.90;;;;;;5100285;28;20023;-78
2023/06/13 06:31:29;;;;;;;0.47;0.47;;;17.80;99.90;;;;;;5098756;28;20024;-78
2023/06/13 06:33:54;;;;;;;1.38;1.38;;;17.90;99.90;;;;;;5079499;28;20016;-81
2023/06/13 06:36:23;;;;;;;0.20;0.20;;;18.10;99.90;;;;;;5078672;28;20127;-81
2023/06/13 06:38:50;;;;;;;0.30;0.30;;;18.90;99.90;;;;;;5080990;28;20028;-77
2023/06/13 06:41:16;;;;;;;0.10;0.10;;;18.40;99.90;;;;;;5099354;28;20024;-81
2023/06/13 06:43:42;;;;;;;0.20;0.20;;;18.50;99.90;;;;;;5099210;28;20027;-88
2023/06/13 06:46:08;;;;;;;0.98;0.98;;;18.60;99.90;;;;;;5099521;28;20592;-84
2023/06/13 06:48:35;;;;;;;0.30;0.30;;;18.60;99.90;;;;;;5100173;28;20024;-86
2023/06/13 06:51:01;;;;;;;0.20;0.20;;;18.80;99.90;;;;;;5100199;28;20027;-85
2023/06/13 06:53:27;;;;;;;0.40;0.40;;;19.00;99.90;;;;;;5101087;28;20012;-87
2023/06/13 06:55:53;;;;;;;0.13;0.13;;;19.20;99.90;;;;;;5101505;28;20048;-80
2023/06/13 06:58:19;;;;;;;1.27;1.23;;;19.20;99.90;;;;;;5101124;28;20715;-76
2023/06/13 07:00:45;;;;;;;0.40;0.40;;;19.40;99.90;;;;;;5101674;28;20629;-87
2023/06/13 07:03:10;;;;;;;0.40;0.40;;;19.40;99.90;;;;;;5103423;28;20019;-75
2023/06/13 07:05:36;;;;;;;0.40;0.40;;;19.50;99.90;;;;;;5088333;28;20038;-77
2023/06/13 07:08:02;;;;;;;0.10;0.10;;;19.60;99.90;;;;;;5105894;28;20043;-74
2023/06/13 07:10:27;;;;;;;0.30;0.30;;;19.50;99.90;;;;;;5090136;28;20534;-75
2023/06/13 07:12:53;;;;;;;0.10;0.10;;;19.40;99.90;;;;;;5086636;28;20020;-81
2023/06/13 07:15:19;;;;;;;0.20;0.20;;;20.60;99.90;;;;;;5105549;28;20758;-87
2023/06/13 07:17:45;;;;;;;0.30;0.30;;;19.00;99.90;;;;;;5103125;28;20024;-75
2023/06/13 07:20:11;;;;;;;0.57;0.57;;;18.90;99.90;;;;;;5104199;28;20028;-75
2023/06/13 07:22:37;;;;;;;0.30;0.30;;;18.70;99.90;;;;;;5108957;28;20073;-77
2023/06/13 07:25:03;;;;;;;1.08;0.55;;;18.60;99.90;;;;;;5104587;28;20035;-83
2023/06/13 07:27:30;;;;;;;0.52;0.52;;;18.60;99.90;;;;;;5103711;28;20162;-91
2023/06/13 07:29:55;;;;;;;0.10;0.10;;;18.40;99.90;;;;;;5103345;28;20028;-80
2023/06/13 07:32:21;;;;;;;0.30;0.30;;;21.80;99.90;;;;;;5103690;28;20073;-75
2023/06/13 07:34:49;;;;;;;1.00;1.00;;;18.40;99.90;;;;;;5105356;28;20111;-86
2023/06/13 07:37:15;;;;;;;0.10;0.10;;;18.50;99.90;;;;;;5102857;28;20038;-76
2023/06/13 07:39:41;;;;;;;12.95;7.13;;;;;;;;;;5091682;28;20023;-75
2023/06/13 07:42:10;;;;;;;0.57;0.57;;;18.40;99.90;;;;;;5091634;28;20028;-76
2023/06/13 07:44:35;;;;;;;0.30;0.30;;;18.40;99.90;;;;;;5108577;28;20027;-77
2023/06/13 07:47:01;;;;;;;0.32;0.32;;;18.30;99.90;;;;;;5109834;28;20020;-74
2023/06/13 07:49:28;;;;;;;0.75;0.75;;;;;;;;;;5107033;28;20016;-84
2023/06/13 07:51:54;;;;;;;1.35;1.35;;;18.40;99.90;;;;;;5107468;28;20016;-81
2023/06/13 07:54:21;;;;;;;0.10;0.10;;;18.80;99.90;;;;;;5105491;28;20051;-80
2023/06/13 07:56:49;;;;;;;0.30;0.30;;;18.30;99.90;;;;;;5102152;28;20081;-89
2023/06/13 07:59:15;;;;;;;0.60;0.60;;;18.30;99.90;;;;;;5101511;28;20061;-73
2023/06/13 08:01:41;;;;;;;0.50;0.50;;;18.40;99.90;;;;;;5082807;28;20023;-82
2023/06/13 08:04:07;;;;;;;0.15;0.15;;;18.50;99.90;;;;;;5101660;28;20073;-75
2023/06/13 08:06:33;;;;;;;0.20;0.20;;;18.60;99.90;;;;;;5100878;28;20016;-75
2023/06/13 08:09:00;;;;;;;0.20;0.20;;;18.70;99.90;;;;;;5082887;28;20024;-76
2023/06/13 08:11:26;;;;;;;0.10;0.10;;;18.80;99.90;;;;;;5102503;28;20045;-79
2023/06/13 08:13:51;;;;;;;0.15;0.15;;;19.00;99.90;;;;;;5083458;28;20024;-81
2023/06/13 08:16:19;;;;;;;0.10;0.10;;;19.20;99.90;;;;;;5100979;28;20063;-85
2023/06/13 08:18:47;;;;;;;0.70;0.70;;;19.30;99.90;;;;;;5101923;28;20095;-81
2023/06/13 08:21:13;;;;;;;0.38;0.38;;;19.50;99.90;;;;;;5103147;28;20020;-79
2023/06/13 08:23:38;;;;;;;0.10;0.10;;;19.20;99.90;;;;;;5104176;28;20010;-87
2023/06/13 08:26:04;;;;;;;0.10;0.10;;;20.00;99.90;;;;;;5102492;28;20619;-78
2023/06/13 08:28:30;;;;;;;0.10;0.10;;;20.00;99.90;;;;;;5102303;28;20030;-81
2023/06/13 08:30:56;;;;;;;0.43;0.43;;;20.30;99.90;;;;;;5102693;28;20022;-83
2023/06/13 08:33:22;;;;;;;1.92;1.75;;;20.60;99.90;;;;;;5101256;28;20069;-89
2023/06/13 08:35:47;;;;;;;0.35;0.35;;;20.60;99.90;;;;;;5101935;28;20043;-84
2023/06/13 08:38:13;;;;;;;0.10;0.10;;;20.90;99.90;;;;;;5104872;28;20023;-80
2023/06/13 08:40:39;;;;;;;0.20;0.20;;;21.00;99.90;;;;;;5100522;28;20030;-76
2023/06/13 08:43:05;;;;;;;0.47;0.47;;;21.90;99.90;;;;;;5082661;28;20030;-80
2023/06/13 08:45:31;;;;;;;0.10;0.10;;;21.20;99.90;;;;;;5082994;28;20050;-81
2023/06/13 08:47:57;;;;;;;0.20;0.20;;;21.10;99.90;;;;;;5081516;28;20126;-85
2023/06/13 08:50:24;;;;;;;0.10;0.10;;;20.90;99.90;;;;;;5100648;28;20553;-75
2023/06/13 08:52:50;;;;;;;0.50;0.50;;;21.00;99.90;;;;;;5087237;28;20072;-79
2023/06/13 08:55:20;;;;;;;0.10;0.10;;;20.90;99.90;;;;;;5105398;28;20051;-75
2023/06/13 08:57:52;;;;;;;0.20;0.20;;;21.20;99.90;;;;;;5082616;28;20036;-79
2023/06/13 09:00:18;;;;;;;0.65;0.65;;;21.20;99.90;;;;;;5065650;28;20020;-78
2023/06/13 09:02:46;;;;;;;0.85;0.82;;;21.20;99.90;;;;;;5082824;28;20048;-76
2023/06/13 09:05:18;;;;;;;0.17;0.17;;;21.10;99.90;;;;;;5081915;28;20060;-82
2023/06/13 09:07:45;;;;;;;0.10;0.10;;;21.20;99.90;;;;;;5099558;28;20340;-84
2023/06/13 09:10:14;;;;;;;0.10;0.10;;;21.50;99.90;;;;;;5082327;28;20012;-78
2023/06/13 09:12:42;;;;;;;0.17;0.17;;;21.40;99.90;;;;;;5100269;28;20100;-82
2023/06/13 09:15:08;;;;;;;0.10;0.10;;;21.50;99.90;;;;;;5100244;28;20119;-86
2023/06/13 09:17:35;;;;;;;0.13;0.13;;;21.50;99.90;;;;;;5100486;28;20031;-84
2023/06/13 09:20:01;;;;;;;0.10;0.10;;;21.50;99.90;;;;;;5101537;28;20042;-80
2023/06/13 09:22:27;;;;;;;1.02;1.02;;;21.70;99.90;;;;;;5101125;28;20606;-82
2023/06/13 09:24:53;;;;;;;0.10;0.10;;;21.80;99.90;;;;;;5100499;28;20055;-83
2023/06/13 09:27:19;;;;;;;0.10;0.10;;;21.90;99.90;;;;;;5105919;28;20502;-82
2023/06/13 09:29:49;;;;;;;0.38;0.38;;;22.00;99.90;;;;;;5089669;28;20023;-81
2023/06/13 09:32:15;;;;;;;0.10;0.10;;;22.10;99.90;;;;;;5090219;28;20076;-76
2023/06/13 09:34:45;;;;;;;0.10;0.10;;;22.40;99.90;;;;;;5102136;28;20024;-81
2023/06/13 09:37:12;;;;;;;0.22;0.22;;;22.70;99.90;;;;;;5108584;28;20276;-76
2023/06/13 09:39:48;;;;;;;0.52;0.52;;;23.10;99.90;;;;;;5110238;28;20696;-84
2023/06/13 09:42:15;;;;;;;1.02;0.90;;;23.40;99.90;;;;;;5108432;28;20524;-83
2023/06/13 09:44:41;;;;;;;0.10;0.10;;;23.80;99.90;;;;;;5099426;28;20351;-76
2023/06/13 09:47:07;;;;;;;0.10;0.10;;;24.00;99.90;;;;;;5101108;28;20015;-77
2023/06/13 09:49:33;;;;;;;0.10;0.10;;;24.40;99.90;;;;;;5082734;28;20027;-86
2023/06/13 09:52:03;;;;;;;1.15;1.05;;;24.20;99.90;;;;;;5082591;28;20023;-78
2023/06/13 09:54:31;;;;;;;0.10;0.10;;;24.30;99.90;;;;;;5080433;28;20040;-80
2023/06/13 09:57:00;;;;;;;0.10;0.10;;;23.80;99.90;;;;;;5101213;28;20023;-88
2023/06/13 09:59:26;;;;;;;0.10;0.10;;;24.00;99.90;;;;;;5101073;28;20553;-78
2023/06/13 10:01:52;;;;;;;0.10;0.10;;;24.20;99.90;;;;;;5080179;28;20023;-83
2023/06/13 10:04:18;;;;;;;0.10;0.10;;;24.60;99.90;;;;;;5099106;28;20232;-75
2023/06/13 10:06:44;;;;;;;0.20;0.20;;;24.70;99.90;;;;;;5080477;28;20020;-83
2023/06/13 10:09:12;;;;;;;0.10;0.10;;;24.90;99.90;;;;;;5099743;28;20027;-83
2023/06/13 10:11:42;;;;;;;0.15;0.15;;;25.30;99.90;;;;;;5099293;28;20426;-83
2023/06/13 10:14:15;;;;;;;0.10;0.10;;;25.60;98.60;;;;;;5081726;28;20300;-87
2023/06/13 10:16:47;;;;;;;0.10;0.10;;;25.70;98.10;;;;;;5081188;28;20022;-86
2023/06/13 10:19:19;;;;;;;0.00;0.00;;;25.80;97.60;;;;;;5100092;28;20020;-77
2023/06/13 10:21:47;;;;;;;0.10;0.10;;;26.00;96.30;;;;;;5101705;28;20051;-75
2023/06/13 10:24:15;;;;;;;0.10;0.10;;;25.80;95.60;;;;;;5081190;28;20489;-78
2023/06/13 10:26:45;;;;;;;0.25;0.25;;;26.10;93.30;;;;;;5104811;28;20658;-84
2023/06/13 10:29:23;;;;;;;0.65;0.57;;;25.90;94.50;;;;;;5105487;28;20196;-80
2023/06/13 10:32:18;;;;;;;0.10;0.10;;;26.00;93.00;;;;;;5100892;28;20055;-81
2023/06/13 10:34:47;;;;;;;0.10;0.10;;;25.60;93.30;;;;;;5097948;28;20038;-82
2023/06/13 10:37:53;;;;;;;0.20;0.20;;;25.80;94.10;;;;;;5100464;28;20016;-82
2023/06/13 10:40:47;;;;;;;0.10;0.10;;;25.50;93.80;;;;;;5100166;28;20324;-80
2023/06/13 10:44:00;;;;;;;0.20;0.20;;;26.20;93.50;;;;;;5103517;28;20019;-82
2023/06/13 10:46:26;;;;;;;0.52;0.52;;;27.00;91.90;;;;;;5080849;28;20028;-76
2023/06/13 10:48:53;;;;;;;0.08;0.08;;;27.70;90.00;;;;;;5106299;28;20583;-83
2023/06/13 10:51:24;;;;;;;0.00;0.00;;;28.10;88.70;;;;;;5104240;28;20032;-79
2023/06/13 10:54:17;;;;;;;0.10;0.10;;;28.40;86.70;;;;;;5102623;28;20043;-85
2023/06/13 10:56:43;;;;;;;0.52;0.43;;;28.90;86.50;;;;;;5098157;28;20443;-80
2023/06/13 10:59:15;;;;;;;0.10;0.10;;;28.50;83.30;;;;;;5084407;28;20028;-79
2023/06/13 11:01:42;;;;;;;0.10;0.10;;;28.20;81.10;;;;;;5102142;28;20024;-86
2023/06/13 11:04:11;;;;;;;0.10;0.10;;;27.80;82.90;;;;;;5102666;28;20022;-79
2023/06/13 11:06:38;;;;;;;0.10;0.10;;;27.60;84.60;;;;;;5102634;28;20444;-76
2023/06/13 11:09:25;;;;;;;0.20;0.20;;;27.40;82.40;;;;;;5083839;28;20365;-79
2023/06/13 11:11:58;;;;;;;0.10;0.10;;;29.20;85.40;;;;;;5102828;28;20028;-83
2023/06/13 11:14:36;;;;;;;0.10;0.10;;;26.20;85.50;;;;;;5102616;28;20033;-77
2023/06/13 11:17:03;;;;;;;0.10;0.10;;;26.10;89.80;;;;;;5101069;28;20104;-83
2023/06/13 11:19:33;;;;;;;0.10;0.10;;;25.70;91.20;;;;;;5102374;28;20019;-80
2023/06/13 11:21:59;;;;;;;1.00;0.73;;;26.10;91.00;;;;;;5102146;28;20429;-78
2023/06/13 11:24:27;;;;;;;2.08;0.85;;;24.00;89.80;;;;;;5102141;28;20036;-79
2023/06/13 11:26:56;;;;;;;0.47;0.47;;;27.00;88.50;;;;;;5101918;28;20702;-78
2023/06/13 11:29:22;;;;;;;0.10;0.10;;;27.90;90.00;;;;;;5102607;28;20016;-77
2023/06/13 11:31:52;;;;;;;0.10;0.10;;;28.60;83.20;;;;;;5104017;28;20034;-84
2023/06/13 11:34:21;;;;;;;0.28;0.28;;;29.20;80.80;;;;;;5091703;28;20019;-87
2023/06/13 11:36:48;;;;;;;0.30;0.30;;;29.60;80.40;;;;;;5107241;28;20019;-82
2023/06/13 11:39:30;;;;;;;0.75;0.75;;;28.40;77.00;;;;;;5105722;28;20047;-84
2023/06/13 11:41:57;;;;;;;1.45;1.35;;;29.10;78.70;;;;;;5102413;28;20019;-76
2023/06/13 11:44:22;;;;;;;0.10;0.10;;;29.30;78.10;;;;;;5082500;28;20426;-79
2023/06/13 11:46:48;;;;;;;0.10;0.10;;;29.40;77.50;;;;;;5101568;28;20095;-79
2023/06/13 11:49:15;;;;;;;0.10;0.10;;;29.10;75.80;;;;;;5083454;28;20024;-77
2023/06/13 11:51:42;;;;;;;1.48;1.45;;;29.60;76.10;;;;;;5101414;28;20024;-80
2023/06/13 11:54:08;;;;;;;1.48;0.73;;;30.20;73.70;;;;;;5101161;28;21038;-77
2023/06/13 11:56:40;;;;;;;0.30;0.30;;;30.70;71.10;;;;;;5081993;28;20027;-76
2023/06/13 11:59:23;;;;;;;0.10;0.10;;;31.00;70.10;;;;;;5081723;28;20045;-77
2023/06/13 12:01:53;;;;;;;0.20;0.20;;;31.20;69.00;;;;;;5100066;28;20266;-79
2023/06/13 12:04:29;;;;;;;0.40;0.40;;;31.60;69.40;;;;;;5100004;28;20312;-82
2023/06/13 12:06:55;;;;;;;1.70;1.27;;;31.40;68.80;;;;;;5100087;28;20065;-76
2023/06/13 12:09:21;;;;;;;0.55;0.55;;;29.80;68.60;;;;;;5099740;28;20024;-77
2023/06/13 12:11:48;;;;;;;0.20;0.20;;;30.70;68.90;;;;;;5081615;28;20119;-78
2023/06/13 12:14:18;;;;;;;0.15;0.15;;;30.70;70.80;;;;;;5099753;28;20023;-77
2023/06/13 12:16:46;;;;;;;0.22;0.22;;;30.30;72.50;;;;;;5100109;28;20096;-76
2023/06/13 12:19:11;;;;;;;0.90;0.85;;;30.60;71.70;;;;;;5082599;28;20099;-79
2023/06/13 12:21:38;;;;;;;0.10;0.10;;;32.10;71.30;;;;;;5101216;28;20088;-79
2023/06/13 12:24:07;;;;;;;0.32;0.32;;;31.70;70.40;;;;;;5100059;28;20036;-78
2023/06/13 12:26:34;;;;;;;0.55;0.45;;;29.50;71.40;;;;;;5081324;28;20150;-80
2023/06/13 12:29:06;;;;;;;1.35;1.00;;;29.40;71.80;;;;;;5100190;28;20335;-77
2023/06/13 12:31:36;;;;;;;0.45;0.45;;;29.00;71.50;;;;;;5082608;28;20023;-80
2023/06/13 12:34:10;;;;;;;0.10;0.10;;;28.60;72.80;;;;;;5081612;28;20023;-84
2023/06/13 12:36:46;;;;;;;0.85;0.85;;;28.00;76.20;;;;;;5082554;28;20066;-84
2023/06/13 12:39:16;;;;;;;0.10;0.10;;;27.90;77.50;;;;;;5100556;28;20019;-76
2023/06/13 12:41:50;;;;;;;0.30;0.22;;;27.20;78.30;;;;;;5100261;28;20049;-80
2023/06/13 12:44:19;;;;;;;0.10;0.10;;;26.70;81.00;;;;;;5100402;28;20102;-81
2023/06/13 12:46:45;;;;;;;0.30;0.30;;;26.60;82.30;;;;;;5100011;28;20045;-84
2023/06/13 12:49:14;;;;;;;0.10;0.10;;;26.20;84.30;;;;;;5100457;28;20542;-81
2023/06/13 12:51:48;;;;;;;0.10;0.10;;;25.90;85.10;;;;;;5083427;28;20582;-83
2023/06/13 12:54:23;;;;;;;5.05;1.20;;;29.10;87.80;;;;;;5105133;28;20039;-84